createdAt,value
2019-04-11T00:00:02.037Z,19.93
2019-04-11T00:02:33.023Z,20.70
2019-04-11T00:05:04.353Z,17.23
2019-04-11T00:07:34.464Z,20.13
2019-04-11T00:10:06.222Z,19.60
2019-04-11T00:12:36.774Z,18.87
2019-04-11T00:15:08.596Z,20.10
2019-04-11T00:17:38.587Z,23.30
2019-04-11T00:20:09.623Z,20.80
2019-04-11T00:22:39.734Z,19.07
2019-04-11T00:25:09.922Z,21.93
2019-04-11T00:27:39.972Z,21.50
2019-04-11T00:30:10.550Z,19.80
2019-04-11T00:32:41.430Z,20.03
2019-04-11T00:35:12.521Z,22.43
2019-04-11T00:37:43.428Z,20.87
2019-04-11T00:40:13.784Z,17.67
2019-04-11T00:42:45.017Z,22.13
2019-04-11T00:45:16.099Z,20.17
2019-04-11T00:47:46.959Z,17.73
2019-04-11T00:50:16.987Z,20.37
2019-04-11T00:52:47.597Z,17.33
2019-04-11T00:55:17.674Z,18.43
2019-04-11T00:57:47.574Z,20.33
2019-04-11T01:00:18.657Z,17.73
2019-04-11T01:02:49.602Z,20.27
2019-04-11T01:05:19.718Z,21.33
2019-04-11T01:07:49.690Z,16.67
2019-04-11T01:10:20.325Z,22.23
2019-04-11T01:12:51.287Z,24.97
2019-04-11T01:15:23.796Z,23.43
2019-04-11T01:17:53.904Z,18.53
2019-04-11T01:20:23.925Z,21.50
2019-04-11T01:22:54.283Z,19.47
2019-04-11T01:25:24.406Z,20.03
2019-04-11T01:27:54.383Z,21.13
2019-04-11T01:30:26.997Z,21.10
2019-04-11T01:32:57.005Z,20.20
2019-04-11T01:35:27.032Z,18.70
2019-04-11T01:37:57.813Z,18.63
2019-04-11T01:40:27.850Z,20.70
2019-04-11T01:42:57.818Z,20.53
2019-04-11T01:45:27.762Z,24.57
2019-04-11T01:48:05.094Z,24.50
2019-04-11T01:50:35.425Z,25.40
2019-04-11T01:53:05.419Z,25.30
2019-04-11T01:55:35.338Z,22.23
2019-04-11T01:58:06.537Z,20.83
2019-04-11T02:00:48.576Z,19.77
2019-04-11T02:03:27.277Z,23.60
2019-04-11T02:05:57.393Z,29.83
2019-04-11T02:08:27.373Z,20.30
2019-04-11T02:10:57.382Z,23.90
2019-04-11T02:13:27.984Z,27.43
2019-04-11T02:15:58.837Z,24.97
2019-04-11T02:18:29.868Z,22.87
2019-04-11T02:21:00.977Z,25.67
2019-04-11T02:23:32.726Z,26.87
2019-04-11T02:26:05.050Z,22.07
2019-04-11T02:28:35.582Z,26.63
2019-04-11T02:31:07.177Z,24.13
2019-04-11T02:33:37.232Z,27.17
2019-04-11T02:36:09.532Z,28.80
2019-04-11T02:38:41.099Z,29.60
2019-04-11T02:41:12.564Z,30.57
2019-04-11T02:43:44.415Z,26.00
2019-04-11T02:46:24.580Z,31.40
2019-04-11T02:48:46.437Z,24.87
2019-04-11T02:51:16.407Z,27.13
2019-04-11T02:53:47.288Z,27.27
2019-04-11T02:56:19.326Z,25.70
2019-04-11T02:58:50.362Z,23.73
2019-04-11T03:01:21.858Z,27.90
2019-04-11T03:03:53.716Z,26.63
2019-04-11T03:06:25.674Z,30.17
2019-04-11T03:08:57.317Z,25.80
2019-04-11T03:11:27.577Z,30.23
2019-04-11T03:14:00.288Z,29.63
2019-04-11T03:16:45.078Z,28.67
2019-04-11T03:19:17.890Z,25.93
2019-04-11T03:21:39.210Z,26.53
2019-04-11T03:24:08.255Z,24.00
2019-04-11T03:26:37.783Z,24.93
2019-04-11T03:29:10.729Z,28.73
2019-04-11T03:32:16.943Z,34.77
2019-04-11T03:35:02.600Z,35.17
2019-04-11T03:37:21.043Z,24.20
2019-04-11T03:39:37.562Z,30.83
2019-04-11T03:42:07.555Z,28.53
2019-04-11T03:44:26.671Z,28.43
2019-04-11T03:47:08.413Z,31.27
2019-04-11T03:49:31.732Z,29.23
2019-04-11T03:51:55.080Z,30.60
2019-04-11T03:54:25.396Z,26.70
2019-04-11T03:56:57.058Z,30.57
2019-04-11T03:59:28.884Z,29.27
2019-04-11T04:02:00.026Z,28.83
2019-04-11T04:04:30.817Z,44.63
2019-04-11T04:07:02.534Z,46.93
2019-04-11T04:09:32.856Z,44.10
2019-04-11T04:12:04.883Z,33.93
2019-04-11T04:14:37.163Z,30.63
2019-04-11T04:17:17.051Z,31.83
2019-04-11T04:20:02.232Z,27.63
2019-04-11T04:22:35.706Z,34.10
2019-04-11T04:25:08.276Z,32.27
2019-04-11T04:27:39.398Z,28.67
2019-04-11T04:30:12.702Z,31.00
2019-04-11T04:32:43.035Z,28.40
2019-04-11T04:35:18.650Z,30.37
2019-04-11T04:37:47.495Z,30.07
2019-04-11T04:40:31.553Z,28.93
2019-04-11T04:42:53.321Z,26.83
2019-04-11T04:45:23.675Z,27.30
2019-04-11T04:47:58.775Z,30.00
2019-04-11T04:50:26.599Z,28.80
2019-04-11T04:52:58.130Z,32.33
2019-04-11T04:55:30.150Z,30.00
2019-04-11T04:58:01.402Z,31.40
2019-04-11T05:00:32.017Z,30.77
2019-04-11T05:03:02.547Z,28.23
2019-04-11T05:05:33.799Z,28.50
2019-04-11T05:08:03.911Z,30.27
2019-04-11T05:10:33.918Z,27.47
2019-04-11T05:13:05.555Z,33.33
2019-04-11T05:15:36.608Z,27.27
2019-04-11T05:18:08.714Z,30.97
2019-04-11T05:20:38.611Z,27.77
2019-04-11T05:23:08.741Z,32.80
2019-04-11T05:25:39.085Z,24.47
2019-04-11T05:28:09.901Z,37.50
2019-04-11T05:30:39.924Z,32.63
2019-04-11T05:33:09.899Z,25.00
2019-04-11T05:35:39.859Z,28.43
2019-04-11T05:38:10.369Z,35.00
2019-04-11T05:40:40.580Z,30.63
2019-04-11T05:43:11.435Z,32.90
2019-04-11T05:45:42.459Z,33.70
2019-04-11T05:48:27.066Z,33.63
2019-04-11T05:50:58.295Z,30.47
2019-04-11T05:53:28.399Z,30.70
2019-04-11T05:55:59.969Z,33.03
2019-04-11T05:58:32.482Z,34.40
2019-04-11T06:01:20.256Z,29.67
2019-04-11T06:03:52.543Z,27.80
2019-04-11T06:06:31.988Z,29.63
2019-04-11T06:09:02.153Z,32.83
2019-04-11T06:11:39.022Z,28.20
2019-04-11T06:14:11.121Z,27.47
2019-04-11T06:16:47.501Z,31.80
2019-04-11T06:19:25.248Z,23.60
2019-04-11T06:21:56.823Z,33.93
2019-04-11T06:24:36.389Z,27.00
2019-04-11T06:27:11.317Z,30.30
2019-04-11T06:30:01.198Z,32.60
2019-04-11T06:32:34.048Z,28.77
2019-04-11T06:35:26.135Z,29.37
2019-04-11T06:38:08.068Z,28.60
2019-04-11T06:40:42.659Z,28.97
2019-04-11T06:43:26.262Z,27.07
2019-04-11T06:45:57.840Z,27.70
2019-04-11T06:48:33.889Z,26.50
2019-04-11T06:51:20.262Z,23.80
2019-04-11T06:53:52.616Z,28.63
2019-04-11T06:56:27.919Z,25.87
2019-04-11T06:58:59.755Z,23.40
2019-04-11T07:01:30.654Z,29.07
2019-04-11T07:04:07.748Z,25.60
2019-04-11T07:06:39.874Z,24.67
2019-04-11T07:09:20.165Z,27.97
2019-04-11T07:11:54.894Z,29.50
2019-04-11T07:14:43.328Z,26.03
2019-04-11T07:17:31.782Z,19.87
2019-04-11T07:20:04.587Z,21.77
2019-04-11T07:22:52.157Z,25.87
2019-04-11T07:25:23.775Z,24.13
2019-04-11T07:27:59.341Z,27.47
2019-04-11T07:30:47.778Z,19.07
2019-04-11T07:33:25.248Z,18.67
2019-04-11T07:36:14.678Z,18.50
2019-04-11T07:39:03.403Z,20.07
2019-04-11T07:41:38.902Z,17.40
2019-04-11T07:44:13.815Z,21.50
2019-04-11T07:46:54.486Z,19.80
2019-04-11T07:49:28.783Z,16.73
2019-04-11T07:52:00.388Z,18.23
2019-04-11T07:54:30.582Z,18.43
2019-04-11T07:57:11.463Z,14.90
2019-04-11T07:59:43.076Z,12.67
2019-04-11T08:02:15.976Z,19.37
2019-04-11T08:05:06.819Z,18.60
2019-04-11T08:07:55.125Z,13.90
2019-04-11T08:10:33.103Z,13.20
2019-04-11T08:13:05.900Z,12.23
2019-04-11T08:15:40.473Z,18.97
2019-04-11T08:18:16.632Z,16.27
2019-04-11T08:20:48.237Z,12.90
2019-04-11T08:23:19.891Z,13.27
2019-04-11T08:26:08.002Z,14.83
2019-04-11T08:28:38.123Z,17.80
2019-04-11T08:31:19.360Z,15.10
2019-04-11T08:33:50.974Z,18.37
2019-04-11T08:36:24.035Z,16.40
2019-04-11T08:38:54.611Z,13.37
2019-04-11T08:41:35.763Z,14.87
2019-04-11T08:44:06.075Z,11.40
2019-04-11T08:46:37.693Z,12.67
2019-04-11T08:49:09.834Z,13.57
2019-04-11T08:51:41.156Z,10.17
2019-04-11T08:54:29.293Z,13.73
2019-04-11T08:56:59.251Z,60.53
2019-04-11T08:59:46.272Z,15.37
2019-04-11T09:02:16.658Z,13.50
2019-04-11T09:04:48.308Z,7.43
2019-04-11T09:07:22.562Z,10.43
2019-04-11T09:10:11.525Z,12.03
2019-04-11T09:12:43.339Z,11.37
2019-04-11T09:15:31.355Z,28.77
2019-04-11T09:18:04.630Z,7.90
2019-04-11T09:20:40.417Z,10.60
2019-04-11T09:23:11.347Z,12.73
2019-04-11T09:25:56.457Z,14.43
2019-04-11T09:28:29.115Z,19.47
2019-04-11T09:31:13.230Z,19.63
2019-04-11T09:33:59.593Z,14.50
2019-04-11T09:36:33.768Z,16.30
2019-04-11T09:39:23.342Z,15.27
2019-04-11T09:42:11.663Z,15.87
2019-04-11T09:44:49.275Z,39.23
2019-04-11T09:47:22.143Z,16.33
2019-04-11T09:50:05.615Z,14.77
2019-04-11T09:52:49.568Z,25.50
2019-04-11T09:55:38.167Z,13.13
2019-04-11T09:58:09.751Z,14.23
2019-04-11T10:00:47.389Z,11.97
2019-04-11T10:03:21.699Z,14.07
2019-04-11T10:05:54.569Z,17.87
2019-04-11T10:08:41.817Z,14.87
2019-04-11T10:11:19.360Z,10.73
2019-04-11T10:13:51.188Z,11.93
2019-04-11T10:16:28.385Z,13.37
2019-04-11T10:19:17.580Z,13.73
2019-04-11T10:22:04.891Z,18.50
2019-04-11T10:24:52.522Z,15.43
2019-04-11T10:27:39.039Z,11.70
2019-04-11T10:30:25.862Z,12.87
2019-04-11T10:33:14.923Z,11.10
2019-04-11T10:35:52.904Z,14.90
2019-04-11T10:38:22.852Z,11.73
2019-04-11T10:41:00.867Z,12.03
2019-04-11T10:43:34.121Z,12.13
2019-04-11T10:46:07.153Z,10.73
2019-04-11T10:48:46.677Z,14.03
2019-04-11T10:51:29.677Z,13.60
2019-04-11T10:53:59.726Z,12.47
2019-04-11T10:56:32.548Z,9.97
2019-04-11T10:59:03.021Z,10.73
2019-04-11T11:01:35.850Z,12.57
2019-04-11T11:04:13.765Z,11.50
2019-04-11T11:06:46.470Z,11.17
2019-04-11T11:09:18.175Z,12.10
2019-04-11T11:12:05.816Z,15.13
2019-04-11T11:14:43.062Z,10.10
2019-04-11T11:17:48.227Z,14.83
2019-04-11T11:20:08.589Z,11.07
2019-04-11T11:22:38.751Z,12.10
2019-04-11T11:25:24.676Z,12.87
2019-04-11T11:27:55.684Z,11.00
2019-04-11T11:30:27.441Z,13.23
2019-04-11T11:32:58.119Z,12.87
2019-04-11T11:35:50.025Z,14.27
2019-04-11T11:38:22.221Z,12.73
2019-04-11T11:41:08.584Z,16.93
2019-04-11T11:43:39.132Z,10.60
2019-04-11T11:46:25.525Z,11.17
2019-04-11T11:48:54.257Z,12.23
2019-04-11T11:51:30.066Z,10.60
2019-04-11T11:54:05.213Z,12.57
2019-04-11T11:56:38.034Z,11.87
2019-04-11T11:59:16.982Z,10.37
2019-04-11T12:01:50.930Z,11.67
2019-04-11T12:04:39.336Z,11.20
2019-04-11T12:07:12.539Z,12.33
2019-04-11T12:09:55.866Z,10.63
2019-04-11T12:12:27.475Z,16.07
2019-04-11T12:15:17.685Z,12.30
2019-04-11T12:17:57.555Z,11.80
2019-04-11T12:20:46.467Z,11.60
2019-04-11T12:23:46.429Z,11.40
2019-04-11T12:26:10.959Z,9.47
2019-04-11T12:28:44.027Z,14.07
2019-04-11T12:31:13.991Z,16.20
2019-04-11T12:33:45.750Z,11.03
2019-04-11T12:36:18.528Z,10.27
2019-04-11T12:38:54.869Z,14.57
2019-04-11T12:41:35.927Z,13.53
2019-04-11T12:44:29.121Z,12.43
2019-04-11T12:47:13.655Z,11.60
2019-04-11T12:49:53.131Z,9.83
2019-04-11T12:52:36.484Z,11.47
2019-04-11T12:55:15.304Z,12.47
2019-04-11T12:58:03.359Z,13.90
2019-04-11T13:00:37.652Z,12.60
2019-04-11T13:03:09.254Z,9.83
2019-04-11T13:05:52.798Z,8.83
2019-04-11T13:08:42.323Z,9.60
2019-04-11T13:11:13.971Z,15.10
2019-04-11T13:13:45.574Z,12.57
2019-04-11T13:16:16.174Z,12.47
2019-04-11T13:18:47.779Z,9.37
2019-04-11T13:21:31.491Z,12.47
2019-04-11T13:24:05.593Z,9.00
2019-04-11T13:26:43.254Z,10.30
2019-04-11T13:29:23.799Z,26.40
2019-04-11T13:31:55.403Z,41.23
2019-04-11T13:34:26.982Z,12.63
2019-04-11T13:37:14.667Z,16.00
2019-04-11T13:39:46.712Z,14.17
2019-04-11T13:42:23.916Z,16.03
2019-04-11T13:44:53.849Z,11.57
2019-04-11T13:47:40.457Z,12.97
2019-04-11T13:50:16.336Z,14.43
2019-04-11T13:52:46.337Z,12.87
2019-04-11T13:55:18.163Z,15.63
2019-04-11T13:57:55.936Z,11.50
2019-04-11T14:00:39.914Z,17.63
2019-04-11T14:03:28.360Z,17.73
2019-04-11T14:05:59.933Z,14.50
2019-04-11T14:08:31.539Z,12.67
2019-04-11T14:11:08.878Z,8.43
2019-04-11T14:13:40.479Z,8.17
2019-04-11T14:16:12.060Z,9.93
2019-04-11T14:18:49.200Z,11.27
2019-04-11T14:21:20.773Z,11.50
2019-04-11T14:24:11.367Z,10.17
2019-04-11T14:26:42.198Z,10.77
2019-04-11T14:29:32.037Z,10.87
2019-04-11T14:32:03.698Z,9.40
2019-04-11T14:34:45.286Z,7.43
2019-04-11T14:37:16.891Z,8.07
2019-04-11T14:39:51.264Z,11.83
2019-04-11T14:42:28.640Z,9.30
2019-04-11T14:44:58.606Z,7.63
2019-04-11T14:47:39.885Z,6.83
2019-04-11T14:50:12.181Z,7.87
2019-04-11T14:53:00.267Z,9.33
2019-04-11T14:55:30.295Z,8.13
2019-04-11T14:58:01.869Z,10.50
2019-04-11T15:00:33.506Z,7.70
2019-04-11T15:03:14.082Z,7.27
2019-04-11T15:05:45.660Z,10.73
2019-04-11T15:08:20.260Z,6.57
2019-04-11T15:10:51.849Z,8.83
2019-04-11T15:13:23.452Z,6.63
2019-04-11T15:16:04.153Z,6.23
2019-04-11T15:18:36.819Z,8.47
2019-04-11T15:21:11.235Z,12.70
2019-04-11T15:23:42.272Z,7.90
2019-04-11T15:26:30.458Z,7.47
2019-04-11T15:29:02.064Z,6.30
2019-04-11T15:31:39.277Z,5.73
2019-04-11T15:34:09.959Z,4.90
2019-04-11T15:36:44.528Z,8.00
2019-04-11T15:39:18.684Z,8.67
2019-04-11T15:41:50.257Z,11.27
2019-04-11T15:44:38.392Z,9.20
2019-04-11T15:47:09.971Z,6.87
2019-04-11T15:49:46.507Z,8.03
2019-04-11T15:52:17.600Z,6.40
2019-04-11T15:54:51.884Z,7.50
2019-04-11T15:57:23.454Z,8.13
2019-04-11T15:59:55.056Z,4.77
2019-04-11T16:02:27.624Z,6.27
2019-04-11T16:05:02.870Z,8.53
2019-04-11T16:07:52.966Z,6.57
2019-04-11T16:10:24.540Z,8.63
2019-04-11T16:13:12.403Z,9.47
2019-04-11T16:15:43.992Z,5.73
2019-04-11T16:18:32.183Z,5.07
2019-04-11T16:21:03.754Z,5.20
2019-04-11T16:23:38.115Z,6.03
2019-04-11T16:26:09.855Z,5.30
2019-04-11T16:28:59.108Z,4.80
2019-04-11T16:31:30.864Z,5.30
2019-04-11T16:34:04.895Z,5.07
2019-04-11T16:36:39.516Z,6.20
2019-04-11T16:39:23.384Z,5.97
2019-04-11T16:41:54.987Z,8.90
2019-04-11T16:44:30.431Z,5.97
2019-04-11T16:47:20.324Z,6.40
2019-04-11T16:49:52.265Z,11.80
2019-04-11T16:52:21.833Z,7.50
2019-04-11T16:54:51.786Z,7.10
2019-04-11T16:57:21.726Z,6.37
2019-04-11T16:59:51.687Z,4.43
2019-04-11T17:02:24.108Z,6.70
2019-04-11T17:04:55.600Z,7.55
2019-04-11T17:07:29.358Z,5.80
2019-04-11T17:10:00.950Z,5.97
2019-04-11T17:12:32.477Z,5.73
2019-04-11T17:15:02.455Z,7.43
2019-04-11T17:17:32.382Z,5.50
2019-04-11T17:20:05.664Z,8.23
2019-04-11T17:22:34.884Z,6.90
2019-04-11T17:25:05.784Z,6.23
2019-04-11T17:27:35.732Z,6.37
2019-04-11T17:30:07.692Z,6.47
2019-04-11T17:32:37.639Z,7.10
2019-04-11T17:35:07.735Z,5.60
2019-04-11T17:37:37.807Z,4.37
2019-04-11T17:40:07.854Z,5.97
2019-04-11T17:42:37.839Z,5.60
2019-04-11T17:45:08.107Z,7.53
2019-04-11T17:47:38.039Z,6.13
2019-04-11T17:50:08.057Z,5.27
2019-04-11T17:52:38.115Z,6.77
2019-04-11T17:55:08.165Z,4.97
2019-04-11T17:57:38.100Z,7.63
2019-04-11T18:00:10.035Z,6.37
2019-04-11T18:02:41.614Z,7.43
2019-04-11T18:05:11.865Z,8.07
2019-04-11T18:07:41.884Z,7.57
2019-04-11T18:10:11.980Z,7.93
2019-04-11T18:12:44.717Z,9.30
2019-04-11T18:15:14.705Z,5.23
2019-04-11T18:17:44.643Z,12.57
2019-04-11T18:20:14.833Z,7.07
2019-04-11T18:22:46.305Z,8.77
2019-04-11T18:25:16.589Z,8.23
2019-04-11T18:27:46.517Z,6.17
2019-04-11T18:30:17.215Z,4.50
2019-04-11T18:32:47.150Z,6.07
2019-04-11T18:35:17.109Z,7.23
2019-04-11T18:37:47.033Z,5.77
2019-04-11T18:40:18.153Z,6.73
2019-04-11T18:42:48.094Z,8.70
2019-04-11T18:45:18.401Z,6.47
2019-04-11T18:47:48.336Z,6.13
2019-04-11T18:50:22.721Z,8.27
2019-04-11T18:52:50.460Z,11.10
2019-04-11T18:55:20.423Z,6.07
2019-04-11T18:57:50.350Z,5.17
2019-04-11T19:00:22.319Z,9.47
2019-04-11T19:02:52.312Z,8.63
2019-04-11T19:05:28.565Z,6.83
2019-04-11T19:07:53.904Z,6.97
2019-04-11T19:10:24.064Z,5.97
2019-04-11T19:12:54.051Z,6.93
2019-04-11T19:15:24.087Z,6.17
2019-04-11T19:18:05.675Z,9.27
2019-04-11T19:20:25.671Z,8.87
2019-04-11T19:22:55.604Z,8.93
2019-04-11T19:25:25.553Z,5.60
2019-04-11T19:27:57.320Z,6.30
2019-04-11T19:30:27.178Z,7.87
2019-04-11T19:32:57.111Z,4.70
2019-04-11T19:35:27.139Z,5.70
2019-04-11T19:37:57.547Z,6.67
2019-04-11T19:40:27.511Z,6.90
2019-04-11T19:42:57.540Z,4.23
2019-04-11T19:45:27.507Z,7.60
2019-04-11T19:47:57.446Z,7.03
2019-04-11T19:50:29.190Z,9.00
2019-04-11T19:53:02.662Z,7.47
2019-04-11T19:55:38.256Z,7.77
2019-04-11T19:58:08.201Z,7.60
2019-04-11T20:00:38.720Z,6.17
2019-04-11T20:03:08.721Z,5.43
2019-04-11T20:05:39.822Z,6.87
2019-04-11T20:08:12.345Z,8.13
2019-04-11T20:10:42.484Z,6.63
2019-04-11T20:13:13.494Z,8.20
2019-04-11T20:15:43.456Z,6.37
2019-04-11T20:18:13.459Z,6.93
2019-04-11T20:20:43.423Z,6.07
2019-04-11T20:23:13.364Z,6.90
2019-04-11T20:25:46.283Z,7.80
2019-04-11T20:28:14.964Z,6.57
2019-04-11T20:30:45.083Z,5.87
2019-04-11T20:33:26.355Z,5.97
2019-04-11T20:35:46.692Z,5.67
2019-04-11T20:38:16.787Z,5.47
2019-04-11T20:40:46.773Z,5.53
2019-04-11T20:43:16.720Z,7.07
2019-04-11T20:45:46.752Z,4.97
2019-04-11T20:48:16.758Z,6.07
2019-04-11T20:50:46.719Z,6.37
2019-04-11T20:53:16.666Z,4.00
2019-04-11T20:55:46.609Z,6.53
2019-04-11T20:58:26.752Z,5.83
2019-04-11T21:00:50.814Z,5.13
2019-04-11T21:03:19.832Z,6.13
2019-04-11T21:05:49.786Z,5.20
2019-04-11T21:08:19.713Z,4.93
2019-04-11T21:10:49.703Z,4.77
2019-04-11T21:13:19.643Z,4.70
2019-04-11T21:15:49.603Z,4.70
2019-04-11T21:18:19.530Z,7.20
2019-04-11T21:20:49.482Z,6.70
2019-04-11T21:23:24.572Z,6.20
2019-04-11T21:25:51.003Z,4.57
2019-04-11T21:28:20.943Z,5.07
2019-04-11T21:30:50.893Z,6.47
2019-04-11T21:33:20.835Z,6.40
2019-04-11T21:35:50.801Z,4.30
2019-04-11T21:38:20.789Z,5.70
2019-04-11T21:40:50.685Z,5.33
2019-04-11T21:43:20.619Z,4.30
2019-04-11T21:45:50.573Z,9.33
2019-04-11T21:48:20.516Z,7.47
2019-04-11T21:50:50.469Z,5.57
2019-04-11T21:53:20.415Z,6.47
2019-04-11T21:55:50.387Z,7.67
2019-04-11T21:58:20.511Z,6.87
2019-04-11T22:00:54.582Z,8.87
2019-04-11T22:03:25.147Z,7.40
2019-04-11T22:05:55.111Z,6.00
2019-04-11T22:08:26.183Z,7.80
2019-04-11T22:10:56.138Z,6.03
2019-04-11T22:13:26.065Z,6.53
2019-04-11T22:15:56.028Z,5.93
2019-04-11T22:18:26.239Z,9.73
2019-04-11T22:20:56.195Z,5.73
2019-04-11T22:23:26.122Z,7.57
2019-04-11T22:25:56.082Z,6.83
2019-04-11T22:28:26.019Z,6.77
2019-04-11T22:30:55.985Z,6.80
2019-04-11T22:33:28.264Z,9.20
2019-04-11T22:35:59.384Z,9.40
2019-04-11T22:38:30.954Z,7.97
2019-04-11T22:41:02.061Z,8.63
2019-04-11T22:43:37.795Z,6.60
2019-04-11T22:46:08.038Z,8.43
2019-04-11T22:48:39.012Z,6.70
2019-04-11T22:51:11.343Z,7.00
2019-04-11T22:53:43.222Z,5.07
2019-04-11T22:56:12.823Z,7.73
2019-04-11T22:58:43.539Z,8.47
2019-04-11T23:01:16.461Z,6.17
2019-04-11T23:03:56.367Z,9.10
2019-04-11T23:06:26.331Z,4.97
2019-04-11T23:13:15.480Z,4.90
2019-04-11T23:15:43.628Z,7.17
2019-04-11T23:18:14.724Z,9.93
2019-04-11T23:20:44.798Z,6.50
2019-04-11T23:23:15.878Z,5.53
2019-04-11T23:25:45.807Z,5.50
2019-04-11T23:28:16.416Z,7.27
2019-04-11T23:30:49.379Z,7.00
2019-04-11T23:33:19.005Z,8.03
2019-04-11T23:35:51.185Z,7.30
2019-04-11T23:38:23.937Z,5.60
2019-04-11T23:40:53.277Z,5.77
2019-04-11T23:43:23.240Z,5.93
2019-04-11T23:45:53.333Z,5.57
2019-04-11T23:48:24.085Z,5.03
2019-04-11T23:50:55.160Z,5.90
2019-04-11T23:53:28.114Z,8.97
2019-04-11T23:55:59.872Z,4.70
2019-04-11T23:58:31.810Z,5.30
